Time;durP1;ratioP1;P1;durP2;ratioP2;P2;SDS_P1;SDS_P2;PMS_P1;PMS_P2;Temp;Humidity;BMP_temperature;BMP_pressure;BME280_temperature;BME280_humidity;BME280_pressure;Samples;Min_cycle;Max_cycle;Signal;HPM_P1;HPM_P2
2023/03/17 00:02:09;;;;;;;5.05;2.58;;;9.20;95.60;;;;;;10434128;28;20036;-64
2023/03/17 00:07:15;;;;;;;4.57;2.50;;;9.20;95.60;;;;;;10430231;28;20017;-63
2023/03/17 00:12:16;;;;;;;4.40;2.88;;;9.20;95.60;;;;;;10426960;28;20025;-64
2023/03/17 00:17:17;;;;;;;4.70;2.67;;;9.20;95.60;;;;;;10424303;28;20029;-64
2023/03/17 00:22:21;;;;;;;4.18;2.60;;;9.20;95.60;;;;;;10425123;28;20044;-64
2023/03/17 00:27:22;;;;;;;6.28;3.30;;;9.10;95.60;;;;;;10427700;28;20025;-64
2023/03/17 00:32:23;;;;;;;4.95;2.88;;;9.10;95.60;;;;;;10428014;28;20401;-64
2023/03/17 00:37:23;;;;;;;5.28;2.97;;;9.10;95.60;;;;;;10426387;28;20018;-65
2023/03/17 00:42:24;;;;;;;5.38;2.47;;;9.10;95.60;;;;;;10426073;28;20033;-64
2023/03/17 00:47:24;;;;;;;4.43;1.92;;;9.20;95.60;;;;;;10434254;28;20544;-63
2023/03/17 00:52:25;;;;;;;3.88;2.58;;;9.10;95.60;;;;;;10433384;28;20013;-64
2023/03/17 00:57:26;;;;;;;4.30;2.60;;;9.10;95.60;;;;;;10435447;28;20112;-63
2023/03/17 01:02:28;;;;;;;3.83;2.55;;;9.10;95.60;;;;;;10436361;28;20040;-65
2023/03/17 01:07:29;;;;;;;3.00;2.25;;;9.10;95.60;;;;;;10436179;28;20041;-64
2023/03/17 01:12:29;;;;;;;5.03;2.47;;;9.20;95.60;;;;;;10429143;28;20078;-64
2023/03/17 01:17:30;;;;;;;4.43;2.53;;;9.10;95.60;;;;;;10435161;28;20414;-64
2023/03/17 01:22:31;;;;;;;3.88;2.33;;;9.10;95.60;;;;;;10429126;28;20086;-64
2023/03/17 01:27:35;;;;;;;5.15;2.20;;;9.10;95.60;;;;;;10433065;28;20099;-64
2023/03/17 01:32:36;;;;;;;4.22;2.20;;;9.10;95.50;;;;;;10427439;28;20143;-63
2023/03/17 01:37:37;;;;;;;3.92;2.03;;;9.10;95.50;;;;;;10434312;28;20029;-64
2023/03/17 01:42:39;;;;;;;5.18;2.50;;;9.10;95.50;;;;;;10434116;28;20419;-64
2023/03/17 01:47:39;;;;;;;4.80;2.15;;;9.10;95.50;;;;;;10430662;28;20086;-64
2023/03/17 01:52:40;;;;;;;3.85;2.30;;;9.10;95.50;;;;;;10430258;28;20078;-65
2023/03/17 01:57:52;;;;;;;5.18;2.70;;;9.10;95.50;;;;;;10434401;28;20049;-64
2023/03/17 02:02:55;;;;;;;5.53;2.60;;;9.10;95.50;;;;;;10435578;28;20033;-65
2023/03/17 02:07:56;;;;;;;4.80;2.42;;;9.10;95.50;;;;;;10425180;28;20477;-63
2023/03/17 02:13:00;;;;;;;4.05;2.60;;;9.10;95.50;;;;;;10431282;28;20093;-63
2023/03/17 02:18:00;;;;;;;7.10;3.03;;;9.10;95.50;;;;;;10434395;28;20047;-64
2023/03/17 02:23:04;;;;;;;5.72;2.63;;;9.10;95.50;;;;;;10434605;28;20036;-63
2023/03/17 02:28:15;;;;;;;4.43;2.10;;;9.10;95.50;;;;;;10431226;28;20025;-65
2023/03/17 02:33:15;;;;;;;4.57;2.60;;;9.10;95.50;;;;;;10428933;28;20028;-63
2023/03/17 02:38:16;;;;;;;5.03;2.33;;;9.00;95.50;;;;;;10433912;28;20493;-64
2023/03/17 02:43:17;;;;;;;5.15;2.33;;;9.10;95.50;;;;;;10433893;28;20025;-65
2023/03/17 02:48:17;;;;;;;4.07;2.20;;;9.10;95.50;;;;;;10430216;28;20412;-64
2023/03/17 02:53:18;;;;;;;4.57;2.42;;;9.00;95.50;;;;;;10424970;28;20146;-64
2023/03/17 02:58:19;;;;;;;3.90;2.25;;;9.00;95.50;;;;;;10432420;28;20026;-64
2023/03/17 03:03:20;;;;;;;3.65;2.40;;;9.00;95.50;;;;;;10427031;28;20037;-64
2023/03/17 03:08:20;;;;;;;5.05;2.13;;;9.00;95.50;;;;;;10427368;28;20043;-63
2023/03/17 03:13:22;;;;;;;3.80;2.25;;;9.10;95.50;;;;;;10429500;28;20040;-64
2023/03/17 03:18:23;;;;;;;3.60;3.00;;;9.00;95.50;;;;;;10427763;28;20107;-63
2023/03/17 03:23:23;;;;;;;6.53;2.55;;;9.00;95.50;;;;;;10430143;28;20079;-64
2023/03/17 03:28:24;;;;;;;5.63;2.42;;;9.00;95.50;;;;;;10433739;28;20039;-64
2023/03/17 03:33:25;;;;;;;3.88;2.60;;;9.00;95.50;;;;;;10431124;28;20032;-63
2023/03/17 03:38:26;;;;;;;4.45;2.20;;;9.00;95.60;;;;;;10427222;28;20095;-64
2023/03/17 03:43:27;;;;;;;3.13;2.05;;;9.00;95.50;;;;;;10434167;28;20033;-64
2023/03/17 03:48:28;;;;;;;5.40;2.47;;;9.00;95.50;;;;;;10432821;28;20025;-64
2023/03/17 03:53:29;;;;;;;5.88;2.33;;;9.00;95.50;;;;;;10432616;28;20311;-64
2023/03/17 03:58:30;;;;;;;4.28;2.30;;;9.00;95.50;;;;;;10430044;28;20056;-64
2023/03/17 04:03:30;;;;;;;5.57;2.65;;;9.00;95.50;;;;;;10431000;28;20044;-63
2023/03/17 04:08:31;;;;;;;4.63;2.33;;;9.00;95.50;;;;;;10430504;28;20032;-64
2023/03/17 04:13:36;;;;;;;4.15;2.05;;;9.00;95.50;;;;;;10437306;28;20120;-64
2023/03/17 04:18:37;;;;;;;3.63;2.30;;;9.00;95.50;;;;;;10430818;28;20504;-65
2023/03/17 04:23:38;;;;;;;4.55;2.45;;;9.00;95.50;;;;;;10443657;28;20030;-64
2023/03/17 04:28:39;;;;;;;4.25;2.20;;;9.00;95.50;;;;;;10434057;28;20102;-64
2023/03/17 04:33:40;;;;;;;4.82;2.53;;;9.00;95.50;;;;;;10437532;28;20036;-64
2023/03/17 04:38:40;;;;;;;4.93;2.17;;;9.00;95.50;;;;;;10432125;28;20041;-64
2023/03/17 04:43:41;;;;;;;4.10;2.08;;;9.00;95.50;;;;;;10435576;28;20018;-64
2023/03/17 04:48:42;;;;;;;2.53;1.98;;;8.90;95.50;;;;;;10439957;28;20027;-64
2023/03/17 04:53:43;;;;;;;3.70;2.20;;;8.90;95.50;;;;;;10438989;28;20055;-64
2023/03/17 04:58:44;;;;;;;3.85;1.83;;;9.40;95.60;;;;;;10431202;28;20290;-64
2023/03/17 05:03:44;;;;;;;3.95;2.17;;;8.90;95.50;;;;;;10436103;28;20099;-63
2023/03/17 05:08:45;;;;;;;3.20;2.08;;;10.10;95.80;;;;;;10435988;28;20076;-64
2023/03/17 05:13:46;;;;;;;4.05;1.77;;;9.00;95.50;;;;;;10438488;28;20036;-64
2023/03/17 05:18:47;;;;;;;5.32;2.13;;;9.00;95.50;;;;;;10434170;28;20508;-63
2023/03/17 05:23:47;;;;;;;4.85;2.40;;;8.90;95.50;;;;;;10440806;28;20038;-63
2023/03/17 05:28:48;;;;;;;3.00;2.13;;;8.90;95.50;;;;;;10435576;28;20492;-64
2023/03/17 05:33:49;;;;;;;2.28;1.65;;;8.90;95.50;;;;;;10433266;28;20025;-64
2023/03/17 05:38:51;;;;;;;4.78;2.30;;;8.90;95.50;;;;;;10432730;28;20120;-64
2023/03/17 05:43:51;;;;;;;3.70;2.58;;;8.90;95.50;;;;;;10441825;28;20083;-63
2023/03/17 05:48:52;;;;;;;3.03;1.88;;;8.90;95.50;;;;;;10434396;28;20021;-64
2023/03/17 05:53:52;;;;;;;3.42;1.90;;;8.90;95.50;;;;;;10431460;28;20448;-69
2023/03/17 05:58:53;;;;;;;3.28;2.10;;;8.90;95.50;;;;;;10437804;28;20251;-64
2023/03/17 06:03:54;;;;;;;4.68;1.98;;;8.90;95.60;;;;;;10433592;28;20020;-64
2023/03/17 06:08:54;;;;;;;3.30;2.10;;;8.90;95.50;;;;;;10425550;28;20014;-64
2023/03/17 06:13:55;;;;;;;3.22;2.03;;;8.90;95.50;;;;;;10439798;28;20638;-64
2023/03/17 06:18:56;;;;;;;3.35;2.15;;;8.90;95.50;;;;;;10441947;28;20112;-64
2023/03/17 06:23:57;;;;;;;3.78;2.30;;;8.90;95.50;;;;;;10436436;28;20251;-65
2023/03/17 06:28:57;;;;;;;3.28;2.15;;;8.90;95.40;;;;;;10438114;28;20206;-65
2023/03/17 06:33:58;;;;;;;3.83;2.10;;;9.00;95.50;;;;;;10430455;28;20086;-64
2023/03/17 06:38:59;;;;;;;4.32;2.20;;;9.00;95.40;;;;;;10433094;28;20033;-65
2023/03/17 06:44:00;;;;;;;3.25;2.13;;;9.00;95.40;;;;;;10429758;28;20065;-65
2023/03/17 06:49:02;;;;;;;6.28;2.25;;;9.00;95.40;;;;;;10436215;28;20301;-65
2023/03/17 06:54:02;;;;;;;3.45;2.08;;;9.00;95.40;;;;;;10433925;28;20029;-65
2023/03/17 06:59:03;;;;;;;4.03;2.25;;;9.00;95.40;;;;;;10433694;28;20426;-65
2023/03/17 07:04:05;;;;;;;4.07;2.03;;;9.00;95.40;;;;;;10416133;28;20029;-64
2023/03/17 07:09:06;;;;;;;2.83;1.90;;;9.00;95.40;;;;;;10425502;28;20399;-64
2023/03/17 07:14:07;;;;;;;3.63;2.28;;;9.00;95.40;;;;;;10434888;28;20039;-63
2023/03/17 07:19:08;;;;;;;3.25;2.30;;;9.00;95.40;;;;;;10423442;28;20037;-64
2023/03/17 07:24:10;;;;;;;4.55;2.00;;;9.10;95.40;;;;;;10430082;28;20033;-63
2023/03/17 07:29:10;;;;;;;3.13;1.80;;;9.10;95.40;;;;;;10428941;28;20499;-63
2023/03/17 07:34:11;;;;;;;3.53;2.03;;;9.10;95.40;;;;;;10431339;28;20026;-64
2023/03/17 07:39:12;;;;;;;3.95;2.03;;;9.10;95.30;;;;;;10423446;28;20029;-65
2023/03/17 07:44:12;;;;;;;3.67;2.20;;;9.10;95.30;;;;;;10430074;28;20020;-65
2023/03/17 07:49:13;;;;;;;4.88;2.28;;;9.10;95.20;;;;;;10415727;28;20256;-65
2023/03/17 07:54:14;;;;;;;4.50;2.33;;;8.90;95.20;;;;;;10422886;28;20036;-63
2023/03/17 07:59:15;;;;;;;5.93;2.10;;;9.20;95.20;;;;;;10420383;28;20316;-63
2023/03/17 08:04:15;;;;;;;3.00;2.20;;;9.30;95.40;;;;;;10425864;28;20039;-63
2023/03/17 08:09:16;;;;;;;3.47;2.22;;;9.30;95.10;;;;;;10428557;28;20530;-64
2023/03/17 08:14:17;;;;;;;3.58;2.60;;;9.30;95.10;;;;;;10437491;28;20070;-65
2023/03/17 08:19:17;;;;;;;4.60;2.38;;;9.40;95.10;;;;;;10435983;28;20084;-64
2023/03/17 08:24:18;;;;;;;4.22;2.78;;;9.40;95.00;;;;;;10431705;28;20036;-64
2023/03/17 08:29:19;;;;;;;5.65;2.30;;;9.40;95.00;;;;;;10437914;28;20046;-64
2023/03/17 08:34:20;;;;;;;3.45;2.10;;;9.40;95.00;;;;;;10440186;28;20024;-64
2023/03/17 08:39:20;;;;;;;4.43;2.67;;;9.40;95.00;;;;;;10434730;28;20028;-64
2023/03/17 08:44:21;;;;;;;3.92;2.40;;;9.40;95.00;;;;;;10437834;28;20215;-62
2023/03/17 08:49:22;;;;;;;3.53;2.22;;;9.40;95.00;;;;;;10434295;28;20455;-63
2023/03/17 08:54:23;;;;;;;3.22;2.28;;;9.50;95.30;;;;;;10432977;28;20037;-64
2023/03/17 08:59:23;;;;;;;6.15;2.92;;;9.50;95.00;;;;;;10432533;28;20567;-65
2023/03/17 09:04:25;;;;;;;3.60;2.10;;;9.50;95.00;;;;;;10437207;28;20588;-64
2023/03/17 09:09:26;;;;;;;3.25;2.10;;;9.60;95.00;;;;;;10439354;28;20025;-63
2023/03/17 09:14:27;;;;;;;4.18;2.33;;;9.60;95.00;;;;;;10437275;28;20471;-65
2023/03/17 09:19:28;;;;;;;4.45;2.10;;;9.70;95.00;;;;;;10434794;28;20060;-63
2023/03/17 09:24:29;;;;;;;4.38;1.95;;;9.70;94.90;;;;;;10428722;28;20141;-64
2023/03/17 09:29:30;;;;;;;3.90;2.20;;;9.80;94.90;;;;;;10437763;28;20025;-63
2023/03/17 09:34:30;;;;;;;2.42;1.88;;;9.80;94.90;;;;;;10431774;28;20286;-63
2023/03/17 09:39:32;;;;;;;4.13;2.30;;;9.90;95.00;;;;;;10439069;28;20025;-64
2023/03/17 09:44:44;;;;;;;4.72;2.30;;;10.00;94.90;;;;;;10431949;28;20410;-64
2023/03/17 09:49:57;;;;;;;5.38;2.45;;;10.10;94.90;;;;;;10434541;28;20256;-64
2023/03/17 09:54:58;;;;;;;5.07;2.35;;;10.10;94.90;;;;;;10432866;28;20025;-64
2023/03/17 10:00:05;;;;;;;5.20;2.42;;;10.20;94.80;;;;;;10433461;28;20021;-64
2023/03/17 10:05:26;;;;;;;3.22;2.00;;;10.30;94.80;;;;;;10433055;28;20032;-64
2023/03/17 10:10:52;;;;;;;4.00;2.35;;;10.30;94.80;;;;;;10425766;28;20021;-64
2023/03/17 10:16:06;;;;;;;3.70;2.25;;;10.40;94.80;;;;;;10427982;28;20025;-63
2023/03/17 10:21:12;;;;;;;3.67;2.30;;;10.50;94.80;;;;;;10432276;28;20060;-64
2023/03/17 10:26:18;;;;;;;5.63;2.50;;;10.60;94.70;;;;;;10435725;28;20025;-63
2023/03/17 10:31:34;;;;;;;4.28;2.20;;;10.60;94.70;;;;;;10431785;28;20480;-64
2023/03/17 10:36:37;;;;;;;3.83;2.38;;;10.70;94.80;;;;;;10434296;28;20108;-64
2023/03/17 10:41:40;;;;;;;6.70;2.53;;;10.80;94.70;;;;;;10438543;28;20396;-64
2023/03/17 10:46:52;;;;;;;3.38;2.30;;;10.90;94.70;;;;;;10435450;28;20108;-64
2023/03/17 10:51:54;;;;;;;5.50;2.47;;;11.00;94.80;;;;;;10428732;28;20032;-65
2023/03/17 10:57:00;;;;;;;6.97;2.70;;;11.10;94.70;;;;;;10434717;28;20021;-65
2023/03/17 11:02:16;;;;;;;5.15;2.88;;;11.10;94.70;;;;;;10436476;28;20025;-63
2023/03/17 11:07:26;;;;;;;3.33;2.45;;;11.20;94.70;;;;;;10432166;28;20021;-64
2023/03/17 11:12:38;;;;;;;3.15;2.22;;;11.30;94.70;;;;;;10433136;28;20029;-64
2023/03/17 11:17:49;;;;;;;4.38;2.53;;;11.30;94.70;;;;;;10428562;28;20457;-65
2023/03/17 11:22:59;;;;;;;4.63;2.25;;;11.50;94.80;;;;;;10434834;28;20084;-64
2023/03/17 11:28:10;;;;;;;4.22;2.35;;;11.50;94.70;;;;;;10429647;28;20104;-63
2023/03/17 11:33:28;;;;;;;3.50;2.55;;;11.60;94.80;;;;;;10429534;28;20145;-64
2023/03/17 11:38:35;;;;;;;4.03;2.13;;;11.60;94.80;;;;;;10430218;28;20370;-64
2023/03/17 11:44:17;;;;;;;4.70;2.08;;;11.70;94.80;;;;;;10433158;28;20025;-64
2023/03/17 11:49:21;;;;;;;;;;;11.70;94.90;;;;;;10425712;28;20033;-64
2023/03/17 11:54:44;;;;;;;3.45;2.20;;;11.80;95.10;;;;;;10432036;28;19909;-64
2023/03/17 11:59:54;;;;;;;3.15;1.90;;;11.80;95.00;;;;;;10430384;28;20071;-64
2023/03/17 12:05:08;;;;;;;3.92;2.22;;;11.90;94.90;;;;;;10433721;28;20033;-65
2023/03/17 12:10:33;;;;;;;5.43;2.25;;;11.90;94.90;;;;;;10429301;28;20226;-65
2023/03/17 12:15:44;;;;;;;4.35;1.88;;;12.00;95.00;;;;;;10430537;28;20036;-64
2023/03/17 12:21:03;;;;;;;4.05;2.03;;;12.10;94.90;;;;;;10421591;28;20025;-64
2023/03/17 12:26:07;;;;;;;;;;;12.10;95.00;;;;;;10424072;28;20040;-64
2023/03/17 12:31:24;;;;;;;4.07;1.98;;;12.10;95.20;;;;;;10428874;28;19905;-64
2023/03/17 12:36:25;;;;;;;4.63;2.10;;;12.20;95.10;;;;;;10430227;28;20477;-63
2023/03/17 12:41:55;;;;;;;3.35;2.35;;;12.20;95.00;;;;;;10433831;28;20021;-64
2023/03/17 12:47:05;;;;;;;5.32;2.10;;;12.20;95.10;;;;;;10436452;28;20032;-64
2023/03/17 12:52:25;;;;;;;4.15;2.40;;;12.30;95.10;;;;;;10437494;28;20053;-64
2023/03/17 12:57:37;;;;;;;4.55;2.22;;;12.30;95.20;;;;;;10435731;28;20030;-64
2023/03/17 13:02:38;;;;;;;6.53;2.78;;;12.40;95.20;;;;;;10439051;28;20031;-63
2023/03/17 13:07:52;;;;;;;4.57;2.50;;;12.40;95.20;;;;;;10438698;28;20389;-66
2023/03/17 13:12:53;;;;;;;4.40;2.40;;;12.50;95.30;;;;;;10437862;28;20143;-64
2023/03/17 13:18:14;;;;;;;4.03;2.75;;;12.50;95.20;;;;;;10430577;28;20029;-64
2023/03/17 13:23:18;;;;;;;6.93;4.82;;;12.60;95.30;;;;;;10433626;28;20037;-65
2023/03/17 13:28:46;;;;;;;8.35;4.70;;;12.90;95.30;;;;;;10435841;28;20017;-65
2023/03/17 13:33:54;;;;;;;8.30;4.90;;;13.30;94.90;;;;;;10431330;28;20132;-65
2023/03/17 13:39:20;;;;;;;7.73;4.60;;;13.70;94.50;;;;;;10434824;28;20287;-64
2023/03/17 13:44:46;;;;;;;10.30;5.38;;;14.00;94.20;;;;;;10435695;28;20033;-65
2023/03/17 13:49:51;;;;;;;9.02;5.13;;;14.20;94.00;;;;;;10426740;28;20427;-66
2023/03/17 13:55:22;;;;;;;10.35;4.57;;;14.30;93.80;;;;;;10433182;28;20033;-65
2023/03/17 14:00:26;;;;;;;9.23;5.15;;;14.30;93.60;;;;;;10428380;28;20108;-65
2023/03/17 14:05:30;;;;;;;11.35;5.50;;;14.30;93.90;;;;;;10426100;28;20378;-65
2023/03/17 14:10:32;;;;;;;8.23;5.32;;;14.20;93.90;;;;;;10425012;28;20025;-65
2023/03/17 14:15:45;;;;;;;14.85;5.95;;;14.10;94.00;;;;;;10427353;28;20459;-68
2023/03/17 14:20:53;;;;;;;12.05;6.05;;;14.10;94.20;;;;;;10426757;28;20028;-66
2023/03/17 14:25:55;;;;;;;;;;;14.20;94.30;;;;;;10421904;28;20037;-66
2023/03/17 14:31:06;;;;;;;10.23;5.10;;;14.20;94.20;;;;;;10426407;28;19974;-67
2023/03/17 14:36:11;;;;;;;9.52;4.47;;;14.20;94.20;;;;;;10430041;28;20549;-66
2023/03/17 14:41:14;;;;;;;8.48;4.78;;;14.20;94.10;;;;;;10424222;28;20029;-70
2023/03/17 14:46:32;;;;;;;12.00;6.35;;;14.30;94.10;;;;;;10430099;28;20029;-74
2023/03/17 14:51:35;;;;;;;8.73;4.30;;;14.30;94.00;;;;;;10423265;28;20021;-72
2023/03/17 14:56:39;;;;;;;10.48;4.68;;;14.20;94.20;;;;;;10429792;28;20028;-66
2023/03/17 15:01:47;;;;;;;8.68;4.25;;;14.10;94.60;;;;;;10425505;28;20507;-65
2023/03/17 15:06:49;;;;;;;7.45;4.05;;;13.90;94.80;;;;;;10428724;28;20031;-65
2023/03/17 15:11:49;;;;;;;9.38;4.03;;;13.80;95.00;;;;;;10423983;28;20032;-65
2023/03/17 15:16:51;;;;;;;5.97;3.85;;;13.70;95.20;;;;;;10432673;28;20420;-65
2023/03/17 15:21:55;;;;;;;8.45;3.70;;;13.70;95.30;;;;;;10426153;28;20037;-64
2023/03/17 15:27:02;;;;;;;7.55;3.63;;;13.60;95.40;;;;;;10431225;28;20072;-65
2023/03/17 15:32:10;;;;;;;6.72;3.30;;;13.60;95.50;;;;;;10429114;28;20032;-65
2023/03/17 15:37:15;;;;;;;6.13;3.60;;;13.50;95.40;;;;;;10424126;28;20112;-65
2023/03/17 15:42:18;;;;;;;7.78;4.43;;;13.50;95.50;;;;;;10428940;28;20111;-66
2023/03/17 15:47:21;;;;;;;6.25;3.95;;;13.50;95.50;;;;;;10423250;28;20108;-66
2023/03/17 15:52:24;;;;;;;6.40;3.83;;;13.50;95.60;;;;;;10428398;28;20040;-65
2023/03/17 15:57:26;;;;;;;9.85;3.80;;;13.40;95.60;;;;;;10425324;28;20029;-66
2023/03/17 16:02:35;;;;;;;6.35;3.65;;;13.40;95.70;;;;;;10427204;28;20032;-65
2023/03/17 16:07:35;;;;;;;6.28;3.28;;;13.40;95.70;;;;;;10422950;28;20036;-66
2023/03/17 16:12:36;;;;;;;7.03;3.65;;;13.30;95.80;;;;;;10432908;28;20040;-66
2023/03/17 16:17:37;;;;;;;6.88;3.20;;;13.30;95.80;;;;;;10434893;28;20044;-65
2023/03/17 16:22:42;;;;;;;7.90;3.60;;;13.30;95.90;;;;;;10435625;28;20120;-66
2023/03/17 16:27:43;;;;;;;6.53;3.60;;;13.30;96.00;;;;;;10430680;28;20041;-65
2023/03/17 16:32:43;;;;;;;6.63;3.83;;;13.30;96.10;;;;;;10433594;28;20037;-65
2023/03/17 16:37:45;;;;;;;6.63;3.53;;;13.20;96.10;;;;;;10430316;28;20037;-65
2023/03/17 16:42:46;;;;;;;8.15;3.10;;;13.20;96.20;;;;;;10433338;28;20423;-66
2023/03/17 16:47:48;;;;;;;5.50;2.78;;;13.20;96.30;;;;;;10431876;28;20038;-64
2023/03/17 16:52:49;;;;;;;8.50;3.50;;;13.20;96.30;;;;;;10432907;28;20025;-66
2023/03/17 16:57:52;;;;;;;8.05;3.47;;;13.10;96.40;;;;;;10433315;28;20021;-64
2023/03/17 17:02:53;;;;;;;6.90;3.20;;;13.10;96.50;;;;;;10436317;28;20025;-64
2023/03/17 17:07:56;;;;;;;6.82;2.85;;;13.10;96.50;;;;;;10429244;28;20025;-66
2023/03/17 17:12:56;;;;;;;5.93;2.80;;;13.10;96.60;;;;;;10431916;28;20025;-66
2023/03/17 17:18:01;;;;;;;5.72;2.85;;;13.10;96.60;;;;;;10425837;28;20493;-65
2023/03/17 17:23:02;;;;;;;6.40;3.20;;;13.00;96.70;;;;;;10433795;28;20410;-65
2023/03/17 17:28:03;;;;;;;10.40;3.50;;;13.00;96.70;;;;;;10432602;28;20036;-65
2023/03/17 17:33:04;;;;;;;8.13;3.38;;;13.00;96.80;;;;;;10434339;28;20324;-65
2023/03/17 17:38:14;;;;;;;7.85;3.30;;;13.00;96.80;;;;;;10431126;28;20028;-64
2023/03/17 17:43:16;;;;;;;8.05;3.22;;;13.00;97.10;;;;;;10429689;28;20078;-64
2023/03/17 17:48:21;;;;;;;6.93;3.15;;;13.00;97.00;;;;;;10428882;28;20065;-63
2023/03/17 17:53:22;;;;;;;10.18;4.20;;;13.00;97.10;;;;;;10434508;28;20017;-64
2023/03/17 17:58:24;;;;;;;5.93;3.70;;;13.00;97.20;;;;;;10434164;28;20392;-64
2023/03/17 18:03:25;;;;;;;7.13;3.45;;;13.10;97.20;;;;;;10437120;28;20025;-65
2023/03/17 18:08:26;;;;;;;18.60;4.65;;;13.00;97.20;;;;;;10425773;28;20013;-68
2023/03/17 18:13:27;;;;;;;6.43;3.10;;;13.00;97.20;;;;;;10430909;28;20025;-65
2023/03/17 18:18:27;;;;;;;10.10;4.13;;;13.00;97.30;;;;;;10434749;28;20063;-64
2023/03/17 18:23:28;;;;;;;8.40;3.30;;;12.90;97.30;;;;;;10436089;28;20044;-64
2023/03/17 18:28:29;;;;;;;9.10;3.38;;;12.90;97.30;;;;;;10431589;28;20025;-65
2023/03/17 18:33:31;;;;;;;5.95;3.13;;;12.90;97.30;;;;;;10429390;28;20017;-64
2023/03/17 18:38:32;;;;;;;6.70;3.30;;;13.00;97.30;;;;;;10430995;28;20017;-64
2023/03/17 18:43:33;;;;;;;4.85;2.85;;;12.90;97.30;;;;;;10435312;28;20021;-65
2023/03/17 18:48:35;;;;;;;4.72;2.80;;;12.90;97.30;;;;;;10431641;28;20035;-65
2023/03/17 18:53:37;;;;;;;8.38;3.33;;;12.80;97.30;;;;;;10432530;28;20013;-64
2023/03/17 18:58:37;;;;;;;5.88;3.08;;;12.80;97.30;;;;;;10430906;28;20100;-64
2023/03/17 19:03:38;;;;;;;7.38;3.10;;;12.80;97.30;;;;;;10424163;28;20032;-64
2023/03/17 19:08:39;;;;;;;5.97;2.85;;;12.80;97.30;;;;;;10426543;28;20017;-63
2023/03/17 19:13:41;;;;;;;5.70;2.80;;;12.80;97.40;;;;;;10429862;28;20036;-63
2023/03/17 19:18:41;;;;;;;7.72;3.30;;;12.80;97.40;;;;;;10430617;28;20060;-64
2023/03/17 19:23:42;;;;;;;5.43;3.00;;;12.70;97.40;;;;;;10423156;28;20549;-63
2023/03/17 19:28:43;;;;;;;6.03;2.67;;;12.70;97.40;;;;;;10430396;28;20017;-63
2023/03/17 19:33:43;;;;;;;4.45;2.80;;;12.70;97.40;;;;;;10432781;28;20095;-65
2023/03/17 19:38:44;;;;;;;3.90;2.78;;;12.70;97.50;;;;;;10429138;28;20032;-63
2023/03/17 19:43:45;;;;;;;6.15;2.92;;;12.60;97.50;;;;;;10431192;28;20109;-64
2023/03/17 19:48:46;;;;;;;5.68;2.83;;;12.60;97.50;;;;;;10436127;28;20019;-64
2023/03/17 19:53:46;;;;;;;5.60;2.70;;;12.60;97.50;;;;;;10445814;28;20025;-64
2023/03/17 19:58:47;;;;;;;6.55;2.97;;;12.60;97.50;;;;;;10445479;28;20021;-62
2023/03/17 20:03:48;;;;;;;3.22;2.42;;;12.60;97.50;;;;;;10440221;28;20493;-64
2023/03/17 20:08:49;;;;;;;6.63;2.60;;;12.60;97.50;;;;;;10444126;28;20061;-64
2023/03/17 20:13:49;;;;;;;7.20;2.58;;;12.60;97.60;;;;;;10440023;28;20021;-64
2023/03/17 20:18:50;;;;;;;8.13;2.78;;;12.60;97.60;;;;;;10438948;28;20028;-65
2023/03/17 20:23:51;;;;;;;5.18;2.50;;;12.60;97.60;;;;;;10445393;28;20047;-63
2023/03/17 20:28:52;;;;;;;3.03;2.13;;;12.50;97.60;;;;;;10439892;28;20037;-65
2023/03/17 20:33:55;;;;;;;5.32;2.83;;;12.50;97.60;;;;;;10443763;28;20029;-65
2023/03/17 20:38:55;;;;;;;4.50;2.60;;;12.50;97.60;;;;;;10444431;28;20779;-63
2023/03/17 20:43:56;;;;;;;6.60;2.60;;;12.50;97.60;;;;;;10440719;28;20043;-63
2023/03/17 20:49:00;;;;;;;4.68;2.92;;;12.50;97.60;;;;;;10438381;28;20493;-64
2023/03/17 20:54:02;;;;;;;4.90;2.75;;;12.50;97.60;;;;;;10446139;28;20025;-64
2023/03/17 20:59:03;;;;;;;4.78;2.60;;;12.40;97.60;;;;;;10435489;28;20544;-65
2023/03/17 21:04:07;;;;;;;4.03;2.65;;;12.40;97.60;;;;;;10434776;28;20098;-64
2023/03/17 21:09:09;;;;;;;5.10;3.00;;;12.40;97.60;;;;;;10439281;28;20028;-64
2023/03/17 21:14:12;;;;;;;6.15;3.45;;;12.40;97.60;;;;;;10431477;28;20013;-64
2023/03/17 21:19:14;;;;;;;5.20;2.95;;;12.40;97.60;;;;;;10433402;28;20063;-64
2023/03/17 21:24:24;;;;;;;4.22;2.88;;;12.40;97.60;;;;;;10429129;28;20187;-64
2023/03/17 21:29:26;;;;;;;4.90;3.03;;;12.40;97.60;;;;;;10430601;28;20025;-63
2023/03/17 21:34:28;;;;;;;5.45;2.97;;;12.40;97.60;;;;;;10429031;28;20021;-63
2023/03/17 21:39:29;;;;;;;6.55;3.58;;;12.40;97.60;;;;;;10430209;28;20528;-64
2023/03/17 21:44:31;;;;;;;5.13;3.30;;;12.40;97.60;;;;;;10435711;28;20032;-64
2023/03/17 21:49:32;;;;;;;6.72;3.20;;;12.40;97.60;;;;;;10427160;28;20026;-65
2023/03/17 21:54:33;;;;;;;6.05;3.40;;;12.20;97.50;;;;;;10434460;28;20776;-63
2023/03/17 21:59:34;;;;;;;6.07;3.72;;;12.40;97.50;;;;;;10419990;28;20266;-64
2023/03/17 22:04:35;;;;;;;6.20;3.42;;;12.30;97.50;;;;;;10429425;28;20560;-63
2023/03/17 22:09:36;;;;;;;5.63;3.40;;;12.30;97.50;;;;;;10430451;28;20026;-65
2023/03/17 22:14:37;;;;;;;4.63;3.13;;;12.40;97.50;;;;;;10422919;28;20075;-64
2023/03/17 22:19:41;;;;;;;6.50;3.05;;;12.30;97.50;;;;;;10434268;28;20056;-64
2023/03/17 22:24:41;;;;;;;5.45;3.30;;;12.30;97.50;;;;;;10434143;28;20021;-65
2023/03/17 22:29:43;;;;;;;5.72;3.55;;;12.30;97.50;;;;;;10431919;28;20033;-65
2023/03/17 22:34:44;;;;;;;6.05;3.42;;;12.30;97.50;;;;;;10431909;28;20032;-64
2023/03/17 22:39:44;;;;;;;4.75;3.25;;;12.30;97.50;;;;;;10426005;28;20043;-64
2023/03/17 22:44:45;;;;;;;5.18;3.30;;;12.30;97.50;;;;;;10427188;28;20404;-64
2023/03/17 22:49:45;;;;;;;4.80;2.90;;;12.30;97.50;;;;;;10431670;28;20120;-65
2023/03/17 22:54:46;;;;;;;4.78;3.45;;;12.30;97.60;;;;;;10435619;28;20022;-64
2023/03/17 22:59:47;;;;;;;6.43;3.30;;;12.30;97.60;;;;;;10434932;28;20048;-65
2023/03/17 23:04:48;;;;;;;4.68;3.33;;;12.30;97.60;;;;;;10427030;28;20042;-64
2023/03/17 23:09:49;;;;;;;6.45;3.45;;;12.30;97.60;;;;;;10428849;28;20021;-64
2023/03/17 23:14:50;;;;;;;6.63;3.78;;;12.20;97.50;;;;;;10432300;28;20029;-64
2023/03/17 23:19:50;;;;;;;5.32;3.00;;;12.20;97.60;;;;;;10433830;28;20408;-65
2023/03/17 23:24:52;;;;;;;6.32;3.30;;;12.20;97.60;;;;;;10429231;28;20488;-65
2023/03/17 23:29:53;;;;;;;7.68;3.45;;;12.20;97.60;;;;;;10425076;28;20045;-65
2023/03/17 23:34:54;;;;;;;5.50;3.03;;;12.20;97.60;;;;;;10427765;28;20033;-64
2023/03/17 23:39:55;;;;;;;5.53;2.92;;;12.20;97.60;;;;;;10426707;28;20024;-65
2023/03/17 23:44:56;;;;;;;5.82;3.47;;;12.20;97.60;;;;;;10427765;28;20040;-64
2023/03/17 23:49:56;;;;;;;5.07;2.80;;;12.20;97.60;;;;;;10424169;28;20051;-65
2023/03/17 23:54:57;;;;;;;4.30;3.00;;;12.20;97.60;;;;;;10428695;28;20034;-64
2023/03/17 23:59:58;;;;;;;5.03;2.88;;;12.20;97.60;;;;;;10428772;28;20500;-63
